createdAt,value
2023-05-09T00:00:14.779Z,14
2023-05-09T00:01:21.704Z,14
2023-05-09T00:02:28.735Z,13
2023-05-09T00:03:35.563Z,16
2023-05-09T00:04:42.442Z,13
2023-05-09T00:05:49.516Z,13
2023-05-09T00:06:56.353Z,14
2023-05-09T00:08:03.265Z,13
2023-05-09T00:09:10.136Z,15
2023-05-09T00:10:17.152Z,15
2023-05-09T00:11:24.089Z,13
2023-05-09T00:12:30.945Z,13
2023-05-09T00:13:37.827Z,12
2023-05-09T00:14:44.653Z,14
2023-05-09T00:15:51.567Z,12
2023-05-09T00:16:58.465Z,15
2023-05-09T00:18:05.394Z,13
2023-05-09T00:19:12.198Z,14
2023-05-09T00:20:19.066Z,13
2023-05-09T00:21:25.921Z,15
2023-05-09T00:22:32.817Z,14
2023-05-09T00:23:39.708Z,14
2023-05-09T00:24:46.565Z,15
2023-05-09T00:25:53.579Z,13
2023-05-09T00:27:00.423Z,15
2023-05-09T00:28:07.312Z,13
2023-05-09T00:29:14.148Z,14
2023-05-09T00:30:21.007Z,17
2023-05-09T00:31:27.963Z,14
2023-05-09T00:32:34.900Z,14
2023-05-09T00:33:41.728Z,15
2023-05-09T00:34:48.554Z,14
2023-05-09T00:35:55.454Z,15
2023-05-09T00:37:02.443Z,15
2023-05-09T00:38:09.369Z,14
2023-05-09T00:39:16.197Z,14
2023-05-09T00:40:23.040Z,15
2023-05-09T00:41:30.061Z,13
2023-05-09T00:42:36.849Z,13
2023-05-09T00:43:43.671Z,15
2023-05-09T00:44:50.625Z,13
2023-05-09T00:45:57.515Z,14
2023-05-09T00:47:04.390Z,13
2023-05-09T00:48:11.500Z,15
2023-05-09T00:49:18.321Z,16
2023-05-09T00:50:25.224Z,13
2023-05-09T00:51:32.113Z,14
2023-05-09T00:52:38.956Z,13
2023-05-09T00:53:45.912Z,16
2023-05-09T00:54:53.002Z,14
2023-05-09T00:55:59.857Z,15
2023-05-09T00:57:07.049Z,15
2023-05-09T00:58:14.724Z,15
2023-05-09T00:59:21.669Z,13
2023-05-09T01:00:28.680Z,13
2023-05-09T01:01:35.584Z,15
2023-05-09T01:02:42.452Z,12
2023-05-09T01:03:49.373Z,14
2023-05-09T01:04:56.305Z,14
2023-05-09T01:06:03.298Z,14
2023-05-09T01:07:20.526Z,16
2023-05-09T01:08:37.790Z,13
2023-05-09T01:09:49.851Z,13
2023-05-09T01:10:59.832Z,14
2023-05-09T01:12:06.700Z,12
2023-05-09T01:13:17.804Z,13
2023-05-09T01:14:27.374Z,14
2023-05-09T01:15:44.664Z,13
2023-05-09T01:16:56.706Z,12
2023-05-09T01:18:08.802Z,14
2023-05-09T01:19:18.693Z,13
2023-05-09T01:20:31.015Z,13
2023-05-09T01:21:43.082Z,14
2023-05-09T01:22:50.002Z,12
2023-05-09T01:24:07.228Z,15
2023-05-09T01:25:24.670Z,14
2023-05-09T01:26:39.326Z,15
2023-05-09T01:27:56.620Z,13
2023-05-09T01:29:14.033Z,14
2023-05-09T01:30:23.517Z,14
2023-05-09T01:31:30.364Z,14
2023-05-09T01:32:37.400Z,12
2023-05-09T01:33:44.348Z,14
2023-05-09T01:34:51.212Z,14
2023-05-09T01:35:58.076Z,15
2023-05-09T01:37:04.965Z,12
2023-05-09T01:38:11.886Z,13
2023-05-09T01:39:18.816Z,14
2023-05-09T01:40:25.700Z,16
2023-05-09T01:41:32.528Z,14
2023-05-09T01:42:39.466Z,16
2023-05-09T01:43:46.336Z,13
2023-05-09T01:44:53.399Z,13
2023-05-09T01:46:00.116Z,14
2023-05-09T01:47:06.952Z,13
2023-05-09T01:48:13.812Z,13
2023-05-09T01:49:20.824Z,12
2023-05-09T01:50:27.677Z,13
2023-05-09T01:51:34.607Z,13
2023-05-09T01:52:41.451Z,14
2023-05-09T01:53:48.320Z,13
2023-05-09T01:54:55.427Z,12
2023-05-09T01:56:02.345Z,15
2023-05-09T01:57:09.347Z,13
2023-05-09T01:58:16.136Z,12
2023-05-09T01:59:23.044Z,12
2023-05-09T02:00:30.042Z,12
2023-05-09T02:01:36.745Z,13
2023-05-09T02:02:43.673Z,12
2023-05-09T02:03:50.476Z,13
2023-05-09T02:04:57.330Z,12
2023-05-09T02:06:04.233Z,14
2023-05-09T02:07:11.160Z,12
2023-05-09T02:08:17.973Z,15
2023-05-09T02:09:24.780Z,15
2023-05-09T02:10:31.700Z,15
2023-05-09T02:11:38.727Z,14
2023-05-09T02:12:45.622Z,15
2023-05-09T02:13:52.480Z,14
2023-05-09T02:14:59.411Z,15
2023-05-09T02:16:06.665Z,14
2023-05-09T02:17:13.434Z,13
2023-05-09T02:18:20.269Z,16
2023-05-09T02:19:27.108Z,13
2023-05-09T02:20:34.030Z,13
2023-05-09T02:21:41.040Z,13
2023-05-09T02:22:47.916Z,15
2023-05-09T02:23:54.922Z,14
2023-05-09T02:25:01.841Z,14
2023-05-09T02:26:08.964Z,13
2023-05-09T02:27:15.956Z,13
2023-05-09T02:28:22.814Z,15
2023-05-09T02:29:29.653Z,13
2023-05-09T02:30:39.529Z,12
2023-05-09T02:31:46.636Z,13
2023-05-09T02:32:53.506Z,15
2023-05-09T02:34:00.593Z,15
2023-05-09T02:35:07.513Z,13
2023-05-09T02:36:14.376Z,15
2023-05-09T02:37:21.293Z,14
2023-05-09T02:38:28.172Z,13
2023-05-09T02:39:35.494Z,13
2023-05-09T02:40:42.403Z,16
2023-05-09T02:41:49.318Z,12
2023-05-09T02:42:56.200Z,14
2023-05-09T02:44:03.115Z,14
2023-05-09T02:45:09.999Z,12
2023-05-09T02:46:17.378Z,14
2023-05-09T02:47:24.451Z,12
2023-05-09T02:48:31.168Z,12
2023-05-09T02:49:38.081Z,13
2023-05-09T02:50:45.001Z,12
2023-05-09T02:51:51.907Z,12
2023-05-09T02:52:58.737Z,13
2023-05-09T02:54:05.602Z,13
2023-05-09T02:55:12.583Z,15
2023-05-09T02:56:19.352Z,12
2023-05-09T02:57:26.299Z,13
2023-05-09T02:58:33.161Z,12
2023-05-09T02:59:40.018Z,12
2023-05-09T03:00:46.893Z,13
2023-05-09T03:01:53.856Z,13
2023-05-09T03:03:00.932Z,12
2023-05-09T03:04:07.597Z,13
2023-05-09T03:05:14.584Z,14
2023-05-09T03:06:21.384Z,14
2023-05-09T03:07:28.249Z,13
2023-05-09T03:08:35.081Z,11
2023-05-09T03:09:41.988Z,14
2023-05-09T03:10:48.907Z,13
2023-05-09T03:11:55.930Z,13
2023-05-09T03:13:02.832Z,13
2023-05-09T03:14:09.723Z,15
2023-05-09T03:15:16.712Z,15
2023-05-09T03:16:23.641Z,14
2023-05-09T03:17:30.480Z,12
2023-05-09T03:18:37.491Z,16
2023-05-09T03:19:44.253Z,14
2023-05-09T03:20:51.153Z,15
2023-05-09T03:21:58.185Z,13
2023-05-09T03:23:05.013Z,14
2023-05-09T03:24:11.883Z,14
2023-05-09T03:25:18.765Z,14
2023-05-09T03:26:25.678Z,14
2023-05-09T03:27:32.672Z,14
2023-05-09T03:28:39.641Z,14
2023-05-09T03:29:46.523Z,14
2023-05-09T03:30:53.463Z,14
2023-05-09T03:32:01.210Z,15
2023-05-09T03:33:08.664Z,14
2023-05-09T03:34:15.745Z,14
2023-05-09T03:35:22.512Z,14
2023-05-09T03:36:29.377Z,14
2023-05-09T03:37:36.290Z,13
2023-05-09T03:38:43.242Z,14
2023-05-09T03:39:50.115Z,16
2023-05-09T03:40:57.038Z,16
2023-05-09T03:42:03.977Z,14
2023-05-09T03:43:10.954Z,14
2023-05-09T03:44:18.050Z,15
2023-05-09T03:45:25.093Z,14
2023-05-09T03:46:31.995Z,13
2023-05-09T03:47:39.007Z,14
2023-05-09T03:48:45.874Z,14
2023-05-09T03:49:52.977Z,14
2023-05-09T03:50:59.698Z,14
2023-05-09T03:52:06.639Z,15
2023-05-09T03:53:13.498Z,15
2023-05-09T03:54:20.372Z,14
2023-05-09T03:55:28.171Z,14
2023-05-09T03:56:35.097Z,15
2023-05-09T03:57:41.944Z,15
2023-05-09T03:58:48.840Z,17
2023-05-09T03:59:55.694Z,16
2023-05-09T04:01:02.629Z,14
2023-05-09T04:02:09.548Z,16
2023-05-09T04:03:16.441Z,14
2023-05-09T04:04:23.292Z,15
2023-05-09T04:05:30.312Z,14
2023-05-09T04:06:37.247Z,15
2023-05-09T04:07:44.130Z,16
2023-05-09T04:08:51.089Z,18
2023-05-09T04:09:57.901Z,14
2023-05-09T04:11:04.851Z,15
2023-05-09T04:12:11.885Z,14
2023-05-09T04:13:18.812Z,16
2023-05-09T04:14:25.704Z,13
2023-05-09T04:15:32.690Z,15
2023-05-09T04:16:39.762Z,15
2023-05-09T04:17:46.708Z,13
2023-05-09T04:18:53.596Z,14
2023-05-09T04:20:00.400Z,15
2023-05-09T04:21:07.675Z,13
2023-05-09T04:22:14.441Z,12
2023-05-09T04:23:21.433Z,15
2023-05-09T04:24:28.268Z,14
2023-05-09T04:25:35.120Z,12
2023-05-09T04:26:42.010Z,14
2023-05-09T04:27:48.909Z,14
2023-05-09T04:28:55.782Z,14
2023-05-09T04:30:02.667Z,17
2023-05-09T04:31:09.875Z,13
2023-05-09T04:32:16.708Z,13
2023-05-09T04:33:23.675Z,13
2023-05-09T04:34:30.622Z,14
2023-05-09T04:35:37.550Z,11
2023-05-09T04:36:44.551Z,12
2023-05-09T04:37:51.306Z,13
2023-05-09T04:38:58.315Z,12
2023-05-09T04:40:05.213Z,13
2023-05-09T04:41:12.433Z,13
2023-05-09T04:42:19.339Z,14
2023-05-09T04:43:29.615Z,14
2023-05-09T04:44:37.506Z,15
2023-05-09T04:45:44.484Z,12
2023-05-09T04:46:51.342Z,13
2023-05-09T04:47:58.168Z,12
2023-05-09T04:49:04.971Z,13
2023-05-09T04:50:11.869Z,15
2023-05-09T04:51:18.840Z,15
2023-05-09T04:52:25.856Z,13
2023-05-09T04:53:32.693Z,13
2023-05-09T04:54:39.586Z,14
2023-05-09T04:55:46.508Z,13
2023-05-09T04:56:56.152Z,13
2023-05-09T04:58:00.400Z,12
2023-05-09T04:59:07.247Z,13
2023-05-09T05:00:14.161Z,13
2023-05-09T05:01:21.316Z,15
2023-05-09T05:02:28.294Z,13
2023-05-09T05:03:35.166Z,13
2023-05-09T05:04:42.101Z,12
2023-05-09T05:05:48.957Z,14
2023-05-09T05:06:55.801Z,14
2023-05-09T05:08:02.992Z,13
2023-05-09T05:09:09.739Z,12
2023-05-09T05:10:16.652Z,15
2023-05-09T05:11:23.535Z,16
2023-05-09T05:12:30.429Z,13
2023-05-09T05:13:37.266Z,12
2023-05-09T05:14:44.180Z,15
2023-05-09T05:15:51.058Z,12
2023-05-09T05:16:57.932Z,12
2023-05-09T05:18:04.799Z,12
2023-05-09T05:19:11.631Z,12
2023-05-09T05:20:18.458Z,12
2023-05-09T05:21:25.293Z,14
2023-05-09T05:22:32.878Z,15
2023-05-09T05:23:39.403Z,13
2023-05-09T05:24:46.118Z,12
2023-05-09T05:25:52.973Z,12
2023-05-09T05:26:59.878Z,14
2023-05-09T05:28:07.029Z,12
2023-05-09T05:29:13.954Z,12
2023-05-09T05:30:20.979Z,13
2023-05-09T05:31:27.808Z,10
2023-05-09T05:32:34.701Z,11
2023-05-09T05:33:41.736Z,13
2023-05-09T05:34:48.592Z,16
2023-05-09T05:35:55.463Z,10
2023-05-09T05:37:02.281Z,13
2023-05-09T05:38:09.272Z,13
2023-05-09T05:39:16.364Z,10
2023-05-09T05:40:23.097Z,14
2023-05-09T05:41:30.044Z,11
2023-05-09T05:42:36.883Z,11
2023-05-09T05:43:46.362Z,11
2023-05-09T05:44:54.510Z,11
2023-05-09T05:46:01.468Z,12
2023-05-09T05:47:08.352Z,11
2023-05-09T05:48:15.253Z,12
2023-05-09T05:49:22.289Z,10
2023-05-09T05:50:29.298Z,12
2023-05-09T05:51:36.203Z,14
2023-05-09T05:52:43.096Z,10
2023-05-09T05:53:49.980Z,11
2023-05-09T05:54:57.012Z,11
2023-05-09T05:56:03.770Z,11
2023-05-09T05:57:10.724Z,10
2023-05-09T05:58:17.608Z,10
2023-05-09T05:59:24.517Z,10
2023-05-09T06:00:31.484Z,10
2023-05-09T06:01:38.420Z,11
2023-05-09T06:02:45.409Z,11
2023-05-09T06:03:52.177Z,9
2023-05-09T06:04:59.060Z,10
2023-05-09T06:06:05.966Z,10
2023-05-09T06:07:12.838Z,12
2023-05-09T06:08:19.670Z,10
2023-05-09T06:09:26.789Z,14
2023-05-09T06:10:34.072Z,10
2023-05-09T06:11:41.141Z,11
2023-05-09T06:12:48.450Z,10
2023-05-09T06:13:55.304Z,9
2023-05-09T06:15:02.233Z,11
2023-05-09T06:17:16.551Z,10
2023-05-09T06:18:23.848Z,11
2023-05-09T06:19:30.844Z,11
2023-05-09T06:20:37.708Z,11
2023-05-09T06:21:44.637Z,14
2023-05-09T06:22:51.689Z,12
2023-05-09T06:24:08.276Z,12
2023-05-09T06:25:06.092Z,11
2023-05-09T06:26:12.512Z,13
2023-05-09T06:27:19.488Z,12
2023-05-09T06:28:26.790Z,13
2023-05-09T06:29:33.693Z,12
2023-05-09T06:30:40.659Z,12
2023-05-09T06:31:47.633Z,15
2023-05-09T06:32:54.475Z,13
2023-05-09T06:34:01.423Z,11
2023-05-09T06:35:08.408Z,11
2023-05-09T06:36:15.315Z,11
2023-05-09T06:37:22.197Z,12
2023-05-09T06:38:29.072Z,10
2023-05-09T06:39:36.053Z,10
2023-05-09T06:40:42.945Z,13
2023-05-09T06:41:50.051Z,9
2023-05-09T06:42:56.733Z,11
2023-05-09T06:44:03.609Z,12
2023-05-09T06:45:10.646Z,11
2023-05-09T06:46:17.607Z,11
2023-05-09T06:47:24.560Z,11
2023-05-09T06:48:31.396Z,10
2023-05-09T06:49:38.269Z,11
2023-05-09T06:50:45.146Z,12
2023-05-09T06:51:52.023Z,11
2023-05-09T06:52:58.913Z,11
2023-05-09T06:54:05.840Z,9
2023-05-09T06:55:12.969Z,10
2023-05-09T06:56:20.108Z,12
2023-05-09T06:57:26.720Z,10
2023-05-09T06:58:33.443Z,8
2023-05-09T06:59:40.306Z,10
2023-05-09T07:00:47.265Z,10
2023-05-09T07:01:54.175Z,10
2023-05-09T07:03:01.061Z,8
2023-05-09T07:04:07.919Z,10
2023-05-09T07:05:14.972Z,9
2023-05-09T07:06:21.680Z,9
2023-05-09T07:07:28.729Z,10
2023-05-09T07:08:35.621Z,11
2023-05-09T07:09:42.508Z,8
2023-05-09T07:10:49.417Z,10
2023-05-09T07:11:56.468Z,7
2023-05-09T07:13:03.468Z,9
2023-05-09T07:14:10.403Z,11
2023-05-09T07:15:25.853Z,10
2023-05-09T07:16:24.185Z,9
2023-05-09T07:17:31.382Z,8
2023-05-09T07:18:38.245Z,8
2023-05-09T07:19:45.345Z,7
2023-05-09T07:20:52.260Z,8
2023-05-09T07:21:59.051Z,7
2023-05-09T07:23:06.141Z,8
2023-05-09T07:24:12.930Z,11
2023-05-09T07:25:19.783Z,8
2023-05-09T07:26:26.638Z,9
2023-05-09T07:27:33.550Z,9
2023-05-09T07:28:40.642Z,6
2023-05-09T07:29:47.512Z,7
2023-05-09T07:30:54.374Z,7
2023-05-09T07:32:01.341Z,7
2023-05-09T07:33:08.325Z,8
2023-05-09T07:34:15.405Z,9
2023-05-09T07:35:22.296Z,8
2023-05-09T07:36:29.245Z,8
2023-05-09T07:37:36.154Z,9
2023-05-09T07:38:42.988Z,7
2023-05-09T07:39:50.030Z,8
2023-05-09T07:40:56.887Z,8
2023-05-09T07:42:03.927Z,7
2023-05-09T07:43:10.837Z,6
2023-05-09T07:44:17.901Z,7
2023-05-09T07:45:24.759Z,11
2023-05-09T07:46:31.727Z,9
2023-05-09T07:47:38.818Z,7
2023-05-09T07:48:45.636Z,10
2023-05-09T07:49:52.499Z,8
2023-05-09T07:50:59.500Z,7
2023-05-09T07:52:06.432Z,8
2023-05-09T07:53:13.320Z,7
2023-05-09T07:54:20.194Z,10
2023-05-09T07:55:27.177Z,8
2023-05-09T07:56:34.256Z,8
2023-05-09T07:57:41.196Z,7
2023-05-09T07:58:48.026Z,8
2023-05-09T07:59:55.044Z,8
2023-05-09T08:01:01.832Z,7
2023-05-09T08:02:08.744Z,7
2023-05-09T08:03:15.789Z,8
2023-05-09T08:04:22.513Z,6
2023-05-09T08:05:29.403Z,7
2023-05-09T08:06:36.459Z,9
2023-05-09T08:07:43.335Z,8
2023-05-09T08:08:50.188Z,9
2023-05-09T08:09:56.996Z,10
2023-05-09T08:11:03.908Z,8
2023-05-09T08:12:10.836Z,9
2023-05-09T08:13:17.751Z,9
2023-05-09T08:14:24.586Z,9
2023-05-09T08:15:31.563Z,8
2023-05-09T08:16:38.358Z,9
2023-05-09T08:17:45.399Z,11
2023-05-09T08:18:52.242Z,8
2023-05-09T08:19:59.119Z,9
2023-05-09T08:21:06.063Z,7
2023-05-09T08:22:12.927Z,9
2023-05-09T08:23:19.790Z,7
2023-05-09T08:24:26.885Z,7
2023-05-09T08:25:33.825Z,12
2023-05-09T08:26:40.677Z,8
2023-05-09T08:27:47.556Z,8
2023-05-09T08:28:54.473Z,8
2023-05-09T08:30:01.491Z,7
2023-05-09T08:31:08.837Z,7
2023-05-09T08:32:15.501Z,7
2023-05-09T08:33:22.406Z,8
2023-05-09T08:34:29.422Z,7
2023-05-09T08:35:38.981Z,9
2023-05-09T08:36:45.844Z,11
2023-05-09T08:37:52.803Z,51
2023-05-09T08:38:59.619Z,10
2023-05-09T08:40:06.513Z,8
2023-05-09T08:41:13.571Z,10
2023-05-09T08:42:20.422Z,9
2023-05-09T08:43:27.370Z,8
2023-05-09T08:44:34.256Z,11
2023-05-09T08:45:41.257Z,8
2023-05-09T08:46:54.192Z,9
2023-05-09T08:48:03.477Z,9
2023-05-09T08:49:10.387Z,8
2023-05-09T08:50:17.583Z,8
2023-05-09T08:51:24.145Z,10
2023-05-09T08:52:30.998Z,8
2023-05-09T08:53:37.862Z,9
2023-05-09T08:54:44.794Z,8
2023-05-09T08:55:51.609Z,9
2023-05-09T08:56:58.518Z,9
2023-05-09T08:58:05.440Z,8
2023-05-09T08:59:12.251Z,8
2023-05-09T09:00:20.671Z,7
2023-05-09T09:01:26.395Z,7
2023-05-09T09:02:33.420Z,7
2023-05-09T09:03:40.131Z,7
2023-05-09T09:04:47.000Z,8
2023-05-09T09:05:54.019Z,9
2023-05-09T09:07:00.838Z,7
2023-05-09T09:08:07.686Z,9
2023-05-09T09:09:14.573Z,8
2023-05-09T09:10:21.597Z,9
2023-05-09T09:11:29.964Z,8
2023-05-09T09:12:38.118Z,10
2023-05-09T09:13:44.983Z,24
2023-05-09T09:14:51.859Z,10
2023-05-09T09:15:58.764Z,11
2023-05-09T09:17:05.610Z,10
2023-05-09T09:18:12.645Z,8
2023-05-09T09:19:19.301Z,10
2023-05-09T09:20:26.133Z,9
2023-05-09T09:21:32.960Z,8
2023-05-09T09:22:39.911Z,8
2023-05-09T09:23:46.700Z,8
2023-05-09T09:24:53.465Z,8
2023-05-09T09:26:00.401Z,7
2023-05-09T09:27:07.184Z,9
2023-05-09T09:28:14.041Z,8
2023-05-09T09:29:20.855Z,9
2023-05-09T09:30:27.763Z,9
2023-05-09T09:31:34.656Z,13
2023-05-09T09:32:41.768Z,13
2023-05-09T09:33:48.728Z,8
2023-05-09T09:34:55.470Z,9
2023-05-09T09:36:07.520Z,9
2023-05-09T09:37:14.445Z,8
2023-05-09T09:38:24.142Z,8
2023-05-09T09:39:31.009Z,8
2023-05-09T09:40:37.988Z,9
2023-05-09T09:41:45.230Z,8
2023-05-09T09:42:52.012Z,7
2023-05-09T09:43:58.951Z,9
2023-05-09T09:45:13.504Z,9
2023-05-09T09:46:20.636Z,8
2023-05-09T09:47:27.496Z,8
2023-05-09T09:48:37.337Z,8
2023-05-09T09:49:45.882Z,9
2023-05-09T09:50:51.223Z,8
2023-05-09T09:51:58.298Z,10
2023-05-09T09:53:05.112Z,7
2023-05-09T09:54:12.025Z,7
2023-05-09T09:55:18.935Z,8
2023-05-09T09:56:25.880Z,7
2023-05-09T09:57:43.084Z,7
2023-05-09T09:58:49.951Z,7
2023-05-09T09:59:56.833Z,8
2023-05-09T10:01:03.862Z,7
2023-05-09T10:02:13.491Z,6
2023-05-09T10:03:20.377Z,7
2023-05-09T10:04:27.204Z,5
2023-05-09T10:05:34.177Z,8
2023-05-09T10:06:40.918Z,7
2023-05-09T10:07:58.078Z,6
2023-05-09T10:09:04.936Z,9
2023-05-09T10:10:11.917Z,7
2023-05-09T10:11:18.710Z,6
2023-05-09T10:12:25.536Z,7
2023-05-09T10:13:32.371Z,7
2023-05-09T10:14:39.328Z,11
2023-05-09T10:15:53.382Z,7
2023-05-09T10:16:53.204Z,7
2023-05-09T10:18:00.193Z,8
2023-05-09T10:19:06.989Z,10
2023-05-09T10:20:14.067Z,6
2023-05-09T10:21:20.905Z,6
2023-05-09T10:22:27.810Z,6
2023-05-09T10:23:34.636Z,7
2023-05-09T10:24:41.524Z,7
2023-05-09T10:25:51.266Z,6
2023-05-09T10:27:03.328Z,7
2023-05-09T10:28:10.196Z,8
2023-05-09T10:29:19.754Z,7
2023-05-09T10:30:26.708Z,7
2023-05-09T10:31:36.297Z,7
2023-05-09T10:32:43.153Z,7
2023-05-09T10:34:00.396Z,5
2023-05-09T10:35:07.243Z,6
2023-05-09T10:36:14.141Z,5
2023-05-09T10:37:21.297Z,7
2023-05-09T10:38:27.958Z,7
2023-05-09T10:39:34.812Z,7
2023-05-09T10:40:41.649Z,6
2023-05-09T10:41:48.505Z,6
2023-05-09T10:42:55.427Z,6
2023-05-09T10:44:02.227Z,7
2023-05-09T10:45:09.063Z,7
2023-05-09T10:46:15.954Z,6
2023-05-09T10:47:22.885Z,6
2023-05-09T10:48:29.782Z,8
2023-05-09T10:49:37.347Z,6
2023-05-09T10:50:43.593Z,6
2023-05-09T10:51:50.421Z,7
2023-05-09T10:52:57.549Z,6
2023-05-09T10:54:06.967Z,6
2023-05-09T10:55:16.843Z,7
2023-05-09T10:56:23.482Z,6
2023-05-09T10:57:32.952Z,6
2023-05-09T10:58:39.822Z,6
2023-05-09T10:59:46.714Z,5
2023-05-09T11:00:55.153Z,5
2023-05-09T11:02:00.472Z,8
2023-05-09T11:03:07.319Z,7
2023-05-09T11:04:14.136Z,6
2023-05-09T11:05:21.001Z,6
2023-05-09T11:06:27.875Z,9
2023-05-09T11:07:45.147Z,6
2023-05-09T11:08:52.070Z,8
2023-05-09T11:09:58.822Z,7
2023-05-09T11:11:10.933Z,7
2023-05-09T11:12:17.748Z,5
2023-05-09T11:13:24.916Z,6
2023-05-09T11:14:34.717Z,6
2023-05-09T11:15:44.330Z,7
2023-05-09T11:16:56.368Z,6
2023-05-09T11:18:03.375Z,5
2023-05-09T11:19:10.292Z,5
2023-05-09T11:20:17.119Z,6
2023-05-09T11:21:24.025Z,6
2023-05-09T11:22:31.054Z,6
2023-05-09T11:23:40.695Z,6
2023-05-09T11:24:47.687Z,5
2023-05-09T11:26:02.658Z,9
2023-05-09T11:27:09.617Z,6
2023-05-09T11:28:21.833Z,7
2023-05-09T11:29:28.683Z,4
2023-05-09T11:30:35.541Z,6
2023-05-09T11:31:42.487Z,5
2023-05-09T11:32:54.499Z,5
2023-05-09T11:34:01.418Z,5
2023-05-09T11:35:08.286Z,5
2023-05-09T11:36:17.743Z,6
2023-05-09T11:37:27.582Z,4
2023-05-09T11:38:34.442Z,6
2023-05-09T11:39:44.108Z,6
2023-05-09T11:41:01.542Z,5
2023-05-09T11:42:08.307Z,6
2023-05-09T11:43:15.123Z,5
2023-05-09T11:44:21.980Z,6
2023-05-09T11:45:28.877Z,5
2023-05-09T11:46:35.734Z,6
2023-05-09T11:47:42.584Z,5
2023-05-09T11:48:49.631Z,4
2023-05-09T11:49:56.492Z,5
2023-05-09T11:51:03.343Z,4
2023-05-09T11:52:10.231Z,6
2023-05-09T11:53:17.022Z,5
2023-05-09T11:54:23.999Z,6
2023-05-09T11:55:30.886Z,4
2023-05-09T11:56:37.914Z,5
2023-05-09T11:57:44.608Z,6
2023-05-09T11:58:51.411Z,6
2023-05-09T11:59:58.282Z,4
2023-05-09T12:01:05.201Z,6
2023-05-09T12:02:12.284Z,4
2023-05-09T12:03:19.175Z,6
2023-05-09T12:04:25.949Z,5
2023-05-09T12:05:35.739Z,5
2023-05-09T12:06:43.834Z,6
2023-05-09T12:07:49.518Z,5
2023-05-09T12:08:56.373Z,4
2023-05-09T12:10:03.273Z,5
2023-05-09T12:11:10.337Z,5
2023-05-09T12:12:17.376Z,5
2023-05-09T12:13:24.115Z,6
2023-05-09T12:14:30.925Z,4
2023-05-09T12:15:37.888Z,6
2023-05-09T12:16:44.674Z,6
2023-05-09T12:17:52.061Z,4
2023-05-09T12:19:06.211Z,9
2023-05-09T12:20:13.053Z,4
2023-05-09T12:21:20.000Z,4
2023-05-09T12:22:26.806Z,3
2023-05-09T12:23:33.809Z,6
2023-05-09T12:24:40.699Z,5
2023-05-09T12:25:47.634Z,5
2023-05-09T12:26:57.505Z,6
2023-05-09T12:28:04.513Z,5
2023-05-09T12:29:11.256Z,6
2023-05-09T12:30:18.122Z,4
2023-05-09T12:31:25.015Z,4
2023-05-09T12:32:32.122Z,5
2023-05-09T12:33:38.878Z,4
2023-05-09T12:34:45.764Z,5
2023-05-09T12:35:53.973Z,4
2023-05-09T12:37:07.446Z,4
2023-05-09T12:38:20.285Z,5
2023-05-09T12:39:27.133Z,5
2023-05-09T12:40:33.999Z,7
2023-05-09T12:41:50.093Z,4
2023-05-09T12:42:53.464Z,5
2023-05-09T12:44:00.399Z,4
2023-05-09T12:45:07.389Z,5
2023-05-09T12:46:14.280Z,5
2023-05-09T12:47:21.111Z,5
2023-05-09T12:48:30.794Z,4
2023-05-09T12:49:37.711Z,5
2023-05-09T12:50:44.626Z,4
2023-05-09T12:51:51.479Z,4
2023-05-09T12:53:03.060Z,6
2023-05-09T12:54:05.194Z,4
2023-05-09T12:55:12.268Z,5
2023-05-09T12:56:19.087Z,4
2023-05-09T12:57:31.347Z,4
2023-05-09T12:58:35.972Z,3
2023-05-09T12:59:42.889Z,4
2023-05-09T13:00:49.655Z,4
2023-05-09T13:01:56.589Z,5
2023-05-09T13:03:03.455Z,5
2023-05-09T13:04:11.242Z,5
2023-05-09T13:05:17.245Z,4
2023-05-09T13:06:23.947Z,5
2023-05-09T13:07:30.795Z,4
2023-05-09T13:08:42.826Z,7
2023-05-09T13:09:49.671Z,5
2023-05-09T13:11:04.441Z,5
2023-05-09T13:12:03.794Z,4
2023-05-09T13:13:10.747Z,4
2023-05-09T13:14:20.679Z,4
2023-05-09T13:15:27.628Z,6
2023-05-09T13:16:34.369Z,5
2023-05-09T13:17:41.301Z,4
2023-05-09T13:18:48.155Z,4
2023-05-09T13:19:54.959Z,5
2023-05-09T13:21:01.814Z,5
2023-05-09T13:22:10.422Z,5
2023-05-09T13:23:15.655Z,6
2023-05-09T13:24:22.545Z,5
2023-05-09T13:25:29.394Z,5
2023-05-09T13:26:36.282Z,3
2023-05-09T13:27:43.147Z,3
2023-05-09T13:28:50.075Z,5
2023-05-09T13:29:56.913Z,6
2023-05-09T13:31:03.980Z,5
2023-05-09T13:32:10.698Z,9
2023-05-09T13:34:24.477Z,6
2023-05-09T13:35:31.414Z,4
2023-05-09T13:36:38.198Z,4
2023-05-09T13:37:45.032Z,5
2023-05-09T13:38:51.828Z,5
2023-05-09T13:39:58.685Z,7
2023-05-09T13:41:05.539Z,5
2023-05-09T13:42:12.388Z,4
2023-05-09T13:43:19.296Z,6
2023-05-09T13:44:26.197Z,7
2023-05-09T13:45:33.163Z,5
2023-05-09T13:46:40.274Z,5
2023-05-09T13:47:46.919Z,4
2023-05-09T13:48:53.739Z,6
2023-05-09T13:50:00.754Z,5
2023-05-09T13:51:07.753Z,4
2023-05-09T13:52:14.628Z,4
2023-05-09T13:53:21.425Z,3
2023-05-09T13:54:28.255Z,4
2023-05-09T13:55:37.765Z,6
2023-05-09T13:56:44.841Z,5
2023-05-09T13:57:51.725Z,4
2023-05-09T13:58:58.605Z,5
2023-05-09T14:00:05.464Z,3
2023-05-09T14:01:12.757Z,4
2023-05-09T14:02:19.888Z,6
2023-05-09T14:03:26.589Z,5
2023-05-09T14:04:33.389Z,5
2023-05-09T14:05:40.240Z,4
2023-05-09T14:06:47.090Z,4
2023-05-09T14:07:53.923Z,3
2023-05-09T14:09:00.740Z,4
2023-05-09T14:10:11.676Z,3
2023-05-09T14:11:14.540Z,4
2023-05-09T14:12:21.437Z,5
2023-05-09T14:13:28.648Z,4
2023-05-09T14:14:35.324Z,5
2023-05-09T14:15:42.241Z,6
2023-05-09T14:16:49.049Z,7
2023-05-09T14:17:56.298Z,4
2023-05-09T14:19:03.019Z,3
2023-05-09T14:20:10.000Z,4
2023-05-09T14:21:16.737Z,4
2023-05-09T14:22:23.575Z,5
2023-05-09T14:23:30.508Z,3
2023-05-09T14:24:37.341Z,4
2023-05-09T14:25:44.176Z,4
2023-05-09T14:26:51.046Z,6
2023-05-09T14:27:57.989Z,4
2023-05-09T14:29:04.861Z,5
2023-05-09T14:30:11.732Z,5
2023-05-09T14:31:18.675Z,5
2023-05-09T14:32:25.477Z,4
2023-05-09T14:33:32.578Z,6
2023-05-09T14:34:39.334Z,4
2023-05-09T14:35:46.174Z,5
2023-05-09T14:36:53.025Z,5
2023-05-09T14:37:59.871Z,4
2023-05-09T14:39:06.704Z,5
2023-05-09T14:40:13.798Z,5
2023-05-09T14:41:21.519Z,4
2023-05-09T14:42:27.288Z,5
2023-05-09T14:43:34.124Z,4
2023-05-09T14:44:40.955Z,6
2023-05-09T14:45:47.938Z,3
2023-05-09T14:46:54.800Z,6
2023-05-09T14:48:01.715Z,5
2023-05-09T14:49:08.600Z,4
2023-05-09T14:50:15.817Z,4
2023-05-09T14:51:22.405Z,5
2023-05-09T14:52:29.315Z,4
2023-05-09T14:53:36.168Z,4
2023-05-09T14:54:43.085Z,5
2023-05-09T14:55:49.902Z,5
2023-05-09T14:56:56.764Z,4
2023-05-09T14:58:03.638Z,5
2023-05-09T14:59:10.468Z,4
2023-05-09T15:00:21.630Z,6
2023-05-09T15:01:24.364Z,5
2023-05-09T15:02:31.214Z,4
2023-05-09T15:03:38.089Z,4
2023-05-09T15:04:45.069Z,6
2023-05-09T15:05:51.852Z,4
2023-05-09T15:06:58.809Z,5
2023-05-09T15:08:05.647Z,5
2023-05-09T15:09:12.640Z,5
2023-05-09T15:10:19.530Z,4
2023-05-09T15:11:28.585Z,6
2023-05-09T15:12:33.179Z,5
2023-05-09T15:13:39.995Z,7
2023-05-09T15:14:46.961Z,4
2023-05-09T15:15:53.791Z,6
2023-05-09T15:17:00.694Z,5
2023-05-09T15:18:07.624Z,5
2023-05-09T15:19:14.494Z,5
2023-05-09T15:20:21.595Z,5
2023-05-09T15:21:28.411Z,4
2023-05-09T15:22:35.259Z,4
2023-05-09T15:23:42.123Z,4
2023-05-09T15:24:48.984Z,4
2023-05-09T15:25:55.984Z,5
2023-05-09T15:27:03.047Z,5
2023-05-09T15:28:09.972Z,5
2023-05-09T15:29:16.924Z,4
2023-05-09T15:30:23.813Z,4
2023-05-09T15:31:30.853Z,5
2023-05-09T15:32:37.725Z,6
2023-05-09T15:33:44.506Z,5
2023-05-09T15:34:51.598Z,4
2023-05-09T15:35:58.561Z,4
2023-05-09T15:37:05.317Z,7
2023-05-09T15:38:12.179Z,4
2023-05-09T15:39:19.077Z,4
2023-05-09T15:40:26.051Z,5
2023-05-09T15:41:32.916Z,3
2023-05-09T15:42:39.738Z,6
2023-05-09T15:43:46.602Z,6
2023-05-09T15:44:53.673Z,6
2023-05-09T15:46:00.517Z,6
2023-05-09T15:47:07.366Z,4
2023-05-09T15:48:14.210Z,7
2023-05-09T15:49:21.167Z,6
2023-05-09T15:50:28.103Z,5
2023-05-09T15:51:35.162Z,5
2023-05-09T15:52:41.824Z,7
2023-05-09T15:53:48.721Z,5
2023-05-09T15:54:55.596Z,6
2023-05-09T15:56:02.429Z,5
2023-05-09T15:57:09.474Z,5
2023-05-09T15:58:16.414Z,4
2023-05-09T15:59:23.261Z,4
2023-05-09T16:00:30.081Z,6
2023-05-09T16:01:36.977Z,4
2023-05-09T16:02:43.879Z,7
2023-05-09T16:03:50.727Z,6
2023-05-09T16:04:57.489Z,6
2023-05-09T16:06:04.336Z,7
2023-05-09T16:07:11.163Z,9
2023-05-09T16:08:18.083Z,6
2023-05-09T16:09:24.920Z,6
2023-05-09T16:10:31.803Z,4
2023-05-09T16:11:38.766Z,6
2023-05-09T16:12:45.621Z,6
2023-05-09T16:13:52.494Z,5
2023-05-09T16:14:59.283Z,6
2023-05-09T16:16:06.455Z,7
2023-05-09T16:17:13.234Z,5
2023-05-09T16:18:20.092Z,6
2023-05-09T16:19:26.958Z,6
2023-05-09T16:20:33.783Z,4